createdAt,value
2023-03-29T00:01:35.789Z,96.72
2023-03-29T00:04:06.475Z,96.03
2023-03-29T00:06:33.673Z,96.34
2023-03-29T00:09:01.571Z,96.55
2023-03-29T00:11:27.971Z,98.36
2023-03-29T00:13:54.382Z,97.38
2023-03-29T00:16:21.139Z,97.57
2023-03-29T00:18:47.573Z,96.51
2023-03-29T00:21:14.006Z,96.10
2023-03-29T00:23:40.360Z,95.24
2023-03-29T00:26:08.274Z,95.64
2023-03-29T00:28:35.402Z,95.38
2023-03-29T00:31:10.431Z,95.90
2023-03-29T00:33:37.805Z,96.42
2023-03-29T00:36:04.617Z,96.74
2023-03-29T00:38:31.825Z,96.73
2023-03-29T00:40:58.520Z,96.34
2023-03-29T00:43:25.057Z,96.83
2023-03-29T00:45:51.462Z,96.61
2023-03-29T00:48:22.110Z,96.14
2023-03-29T00:50:53.938Z,96.22
2023-03-29T00:53:42.660Z,95.84
2023-03-29T00:56:18.464Z,94.98
2023-03-29T00:58:54.863Z,94.50
2023-03-29T01:01:28.547Z,94.80
2023-03-29T01:04:04.535Z,94.96
2023-03-29T01:06:35.076Z,95.64
2023-03-29T01:09:07.981Z,96.35
2023-03-29T01:11:39.695Z,96.38
2023-03-29T01:14:15.477Z,96.06
2023-03-29T01:16:42.383Z,95.72
2023-03-29T01:19:13.693Z,97.32
2023-03-29T01:21:44.870Z,97.30
2023-03-29T01:24:20.339Z,96.19
2023-03-29T01:26:59.643Z,95.26
2023-03-29T01:29:38.966Z,95.23
2023-03-29T01:32:23.436Z,94.63
2023-03-29T01:34:57.588Z,95.90
2023-03-29T01:37:32.337Z,95.73
2023-03-29T01:39:58.755Z,96.66
2023-03-29T01:42:36.357Z,96.36
2023-03-29T01:45:09.837Z,97.20
2023-03-29T01:47:47.726Z,97.93
2023-03-29T01:50:27.269Z,97.75
2023-03-29T01:53:04.166Z,96.90
2023-03-29T01:55:35.998Z,97.15
2023-03-29T01:58:05.776Z,97.54
2023-03-29T02:00:34.778Z,97.72
2023-03-29T02:03:07.845Z,97.84
2023-03-29T02:05:37.356Z,97.48
2023-03-29T02:08:05.626Z,97.88
2023-03-29T02:10:34.000Z,98.48
2023-03-29T02:13:00.901Z,97.89
2023-03-29T02:15:27.995Z,97.87
2023-03-29T02:17:54.624Z,97.10
2023-03-29T02:20:29.954Z,96.27
2023-03-29T02:23:12.986Z,96.06
2023-03-29T02:25:39.505Z,96.11
2023-03-29T02:28:06.922Z,96.94
2023-03-29T02:30:54.595Z,97.07
2023-03-29T02:33:31.198Z,96.59
2023-03-29T02:36:04.240Z,94.34
2023-03-29T02:38:31.946Z,95.18
2023-03-29T02:41:00.287Z,95.01
2023-03-29T02:43:28.608Z,95.08
2023-03-29T02:45:55.778Z,96.00
2023-03-29T02:48:26.790Z,96.21
2023-03-29T02:50:59.866Z,97.33
2023-03-29T02:53:45.699Z,95.91
2023-03-29T02:56:13.450Z,97.24
2023-03-29T02:58:40.946Z,97.97
2023-03-29T03:01:08.319Z,99.19
2023-03-29T03:03:35.812Z,99.88
2023-03-29T03:06:02.601Z,99.05
2023-03-29T03:08:29.121Z,100.00
2023-03-29T03:10:55.633Z,99.53
2023-03-29T03:13:22.057Z,100.00
2023-03-29T03:15:49.303Z,99.85
2023-03-29T03:18:16.645Z,100.00
2023-03-29T03:20:46.449Z,99.49
2023-03-29T03:23:12.879Z,99.64
2023-03-29T03:25:39.419Z,99.69
2023-03-29T03:28:06.005Z,98.71
2023-03-29T03:30:33.802Z,99.87
2023-03-29T03:33:00.367Z,98.71
2023-03-29T03:35:26.751Z,98.71
2023-03-29T03:37:53.090Z,98.35
2023-03-29T03:40:20.758Z,97.78
2023-03-29T03:42:47.209Z,99.23
2023-03-29T03:45:13.700Z,99.45
2023-03-29T03:47:40.935Z,99.64
2023-03-29T03:50:09.030Z,99.68
2023-03-29T03:52:35.547Z,100.00
2023-03-29T03:55:03.016Z,99.99
2023-03-29T03:57:29.668Z,100.00
2023-03-29T03:59:56.283Z,100.00
2023-03-29T04:02:22.939Z,100.00
2023-03-29T04:04:49.348Z,100.00
2023-03-29T04:07:17.757Z,100.00
2023-03-29T04:09:45.041Z,100.00
2023-03-29T04:12:11.974Z,100.00
2023-03-29T04:14:38.515Z,100.00
2023-03-29T04:17:05.629Z,100.00
2023-03-29T04:19:32.010Z,100.00
2023-03-29T04:21:58.451Z,100.00
2023-03-29T04:24:25.124Z,100.00
2023-03-29T04:26:51.503Z,100.00
2023-03-29T04:29:18.003Z,100.00
2023-03-29T04:31:44.472Z,100.00
2023-03-29T04:34:10.984Z,100.00
2023-03-29T04:36:37.522Z,100.00
2023-03-29T04:39:04.421Z,100.00
2023-03-29T04:41:32.532Z,100.00
2023-03-29T04:43:58.928Z,100.00
2023-03-29T04:46:26.489Z,100.00
2023-03-29T04:48:53.989Z,100.00
2023-03-29T04:51:22.188Z,100.00
2023-03-29T04:53:50.326Z,100.00
2023-03-29T04:56:17.263Z,100.00
2023-03-29T04:58:44.338Z,100.00
2023-03-29T05:01:10.984Z,100.00
2023-03-29T05:03:37.469Z,100.00
2023-03-29T05:06:08.730Z,100.00
2023-03-29T05:08:38.874Z,100.00
2023-03-29T05:11:10.348Z,100.00
2023-03-29T05:13:38.170Z,100.00
2023-03-29T05:16:05.233Z,100.00
2023-03-29T05:18:31.816Z,100.00
2023-03-29T05:20:59.510Z,100.00
2023-03-29T05:23:26.361Z,100.00
2023-03-29T05:25:55.883Z,100.00
2023-03-29T05:28:22.890Z,100.00
2023-03-29T05:31:00.064Z,100.00
2023-03-29T05:33:27.080Z,100.00
2023-03-29T05:36:05.225Z,100.00
2023-03-29T05:38:35.703Z,100.00
2023-03-29T05:41:02.987Z,100.00
2023-03-29T05:43:29.858Z,100.00
2023-03-29T05:45:56.495Z,100.00
2023-03-29T05:48:25.737Z,100.00
2023-03-29T05:50:53.872Z,100.00
2023-03-29T05:53:22.167Z,100.00
2023-03-29T05:55:48.818Z,100.00
2023-03-29T05:58:17.970Z,100.00
2023-03-29T06:00:44.902Z,100.00
2023-03-29T06:03:21.301Z,100.00
2023-03-29T06:05:56.323Z,100.00
2023-03-29T06:08:23.334Z,100.00
2023-03-29T06:10:50.163Z,100.00
2023-03-29T06:13:17.089Z,100.00
2023-03-29T06:15:43.448Z,100.00
2023-03-29T06:18:09.940Z,100.00
2023-03-29T06:20:36.384Z,100.00
2023-03-29T06:23:02.779Z,100.00
2023-03-29T06:25:29.967Z,100.00
2023-03-29T06:27:56.365Z,100.00
2023-03-29T06:30:23.295Z,100.00
2023-03-29T06:32:50.559Z,100.00
2023-03-29T06:35:17.116Z,100.00
2023-03-29T06:37:49.367Z,100.00
2023-03-29T06:40:17.565Z,100.00
2023-03-29T06:42:45.073Z,100.00
2023-03-29T06:45:11.678Z,100.00
2023-03-29T06:47:38.110Z,99.12
2023-03-29T06:50:05.493Z,98.60
2023-03-29T06:52:31.905Z,98.13
2023-03-29T06:54:58.420Z,97.79
2023-03-29T06:57:25.303Z,96.50
2023-03-29T06:59:51.744Z,97.18
2023-03-29T07:02:18.113Z,97.50
2023-03-29T07:04:44.586Z,94.99
2023-03-29T07:07:19.935Z,94.09
2023-03-29T07:09:53.888Z,93.33
2023-03-29T07:12:22.437Z,92.44
2023-03-29T07:14:48.873Z,91.11
2023-03-29T07:17:16.626Z,92.25
2023-03-29T07:19:43.316Z,92.33
2023-03-29T07:22:09.918Z,91.77
2023-03-29T07:24:36.327Z,91.91
2023-03-29T07:27:04.434Z,90.93
2023-03-29T07:29:31.989Z,88.94
2023-03-29T07:31:58.412Z,88.46
2023-03-29T07:34:24.787Z,89.47
2023-03-29T07:36:51.577Z,89.86
2023-03-29T07:39:18.117Z,90.17
2023-03-29T07:41:44.531Z,88.53
2023-03-29T07:44:10.916Z,88.42
2023-03-29T07:46:37.885Z,88.43
2023-03-29T07:49:04.647Z,89.21
2023-03-29T07:51:31.633Z,90.09
2023-03-29T07:53:58.034Z,89.14
2023-03-29T07:56:24.781Z,89.36
2023-03-29T07:58:51.694Z,88.80
2023-03-29T08:01:19.923Z,89.01
2023-03-29T08:03:46.663Z,89.73
2023-03-29T08:06:13.264Z,87.95
2023-03-29T08:08:39.648Z,87.60
2023-03-29T08:11:08.836Z,87.59
2023-03-29T08:13:35.272Z,87.85
2023-03-29T08:16:02.043Z,85.10
2023-03-29T08:18:28.452Z,84.33
2023-03-29T08:20:54.815Z,85.41
2023-03-29T08:23:21.306Z,85.52
2023-03-29T08:25:47.738Z,85.83
2023-03-29T08:28:14.181Z,86.77
2023-03-29T08:30:40.556Z,85.37
2023-03-29T08:33:07.572Z,87.21
2023-03-29T08:35:34.066Z,85.69
2023-03-29T08:38:00.687Z,84.82
2023-03-29T08:40:30.072Z,83.87
2023-03-29T08:43:12.579Z,82.49
2023-03-29T08:45:55.937Z,84.05
2023-03-29T08:48:22.312Z,83.23
2023-03-29T08:50:54.718Z,82.73
2023-03-29T08:53:31.358Z,82.70
2023-03-29T08:55:59.902Z,82.59
2023-03-29T08:58:31.538Z,82.26
2023-03-29T09:01:00.122Z,82.33
2023-03-29T09:03:38.104Z,81.45
2023-03-29T09:06:07.576Z,81.10
2023-03-29T09:08:43.567Z,80.81
2023-03-29T09:11:19.019Z,79.63
2023-03-29T09:14:23.144Z,78.82
2023-03-29T09:17:33.674Z,79.11
2023-03-29T09:20:31.300Z,79.07
2023-03-29T09:23:03.721Z,78.97
2023-03-29T09:26:02.127Z,79.08
2023-03-29T09:28:40.609Z,77.63
2023-03-29T09:31:18.106Z,79.41
2023-03-29T09:33:50.391Z,77.18
2023-03-29T09:36:25.322Z,77.80
2023-03-29T09:38:54.453Z,78.12
2023-03-29T09:41:33.776Z,78.53
2023-03-29T09:44:05.800Z,77.32
2023-03-29T09:47:01.930Z,77.06
2023-03-29T09:49:34.599Z,76.21
2023-03-29T09:52:08.792Z,76.56
2023-03-29T09:54:35.610Z,78.89
2023-03-29T09:57:02.088Z,78.03
2023-03-29T09:59:28.584Z,77.38
2023-03-29T10:02:05.938Z,77.02
2023-03-29T10:04:32.477Z,76.25
2023-03-29T10:06:59.868Z,75.66
2023-03-29T10:09:29.909Z,76.27
2023-03-29T10:12:05.079Z,77.18
2023-03-29T10:14:38.136Z,76.52
2023-03-29T10:17:11.618Z,76.04
2023-03-29T10:19:38.019Z,76.24
2023-03-29T10:22:17.587Z,76.15
2023-03-29T10:24:52.203Z,74.75
2023-03-29T10:27:27.778Z,75.92
2023-03-29T10:29:55.270Z,76.01
2023-03-29T10:32:21.747Z,74.85
2023-03-29T10:34:49.630Z,75.27
2023-03-29T10:37:19.396Z,74.86
2023-03-29T10:39:48.185Z,74.18
2023-03-29T10:42:23.630Z,73.08
2023-03-29T10:44:58.071Z,73.24
2023-03-29T10:47:25.449Z,71.86
2023-03-29T10:49:56.624Z,72.64
2023-03-29T10:52:23.632Z,72.37
2023-03-29T10:54:52.581Z,71.88
2023-03-29T10:57:57.386Z,71.39
2023-03-29T11:00:33.869Z,71.20
2023-03-29T11:03:15.885Z,72.09
2023-03-29T11:06:06.972Z,70.16
2023-03-29T11:08:48.332Z,69.08
2023-03-29T11:12:04.745Z,68.54
2023-03-29T11:15:11.026Z,67.95
2023-03-29T11:18:14.438Z,68.29
2023-03-29T11:21:10.807Z,67.52
2023-03-29T11:23:40.004Z,68.71
2023-03-29T11:26:31.177Z,68.48
2023-03-29T11:29:04.367Z,67.94
2023-03-29T11:31:44.342Z,67.77
2023-03-29T11:34:17.543Z,68.65
2023-03-29T11:36:55.030Z,67.85
2023-03-29T11:39:58.930Z,67.04
2023-03-29T11:42:32.047Z,67.59
2023-03-29T11:45:02.092Z,68.75
2023-03-29T11:47:36.545Z,69.08
2023-03-29T11:50:13.384Z,68.85
2023-03-29T11:52:47.187Z,69.11
2023-03-29T11:55:26.110Z,67.75
2023-03-29T11:57:57.976Z,67.29
2023-03-29T12:00:30.438Z,66.67
2023-03-29T12:02:56.868Z,66.37
2023-03-29T12:05:30.234Z,65.95
2023-03-29T12:08:18.797Z,65.02
2023-03-29T12:10:51.427Z,63.25
2023-03-29T12:13:20.192Z,62.33
2023-03-29T12:16:01.135Z,61.83
2023-03-29T12:18:38.365Z,60.09
2023-03-29T12:21:11.784Z,60.22
2023-03-29T12:23:38.592Z,61.08
2023-03-29T12:26:17.008Z,60.06
2023-03-29T12:28:55.676Z,59.03
2023-03-29T12:31:38.626Z,59.55
2023-03-29T12:34:10.289Z,60.67
2023-03-29T12:37:09.132Z,59.17
2023-03-29T12:39:36.916Z,58.43
2023-03-29T12:42:15.244Z,58.85
2023-03-29T12:44:46.978Z,58.49
2023-03-29T12:47:21.348Z,59.14
2023-03-29T12:49:56.541Z,59.27
2023-03-29T12:52:42.917Z,59.04
2023-03-29T12:55:31.158Z,58.54
2023-03-29T12:58:23.067Z,58.20
2023-03-29T13:00:57.684Z,59.91
2023-03-29T13:03:27.110Z,58.72
2023-03-29T13:06:02.537Z,58.89
2023-03-29T13:08:45.634Z,59.64
2023-03-29T13:11:27.233Z,59.43
2023-03-29T13:13:54.025Z,59.04
2023-03-29T13:16:29.860Z,59.89
2023-03-29T13:19:09.838Z,61.33
2023-03-29T13:22:00.501Z,61.70
2023-03-29T13:24:39.059Z,60.40
2023-03-29T13:27:17.976Z,59.20
2023-03-29T13:30:15.425Z,58.01
2023-03-29T13:32:57.080Z,57.30
2023-03-29T13:35:26.560Z,57.27
2023-03-29T13:38:17.926Z,57.54
2023-03-29T13:40:56.801Z,57.71
2023-03-29T13:43:34.922Z,57.88
2023-03-29T13:46:01.418Z,57.62
2023-03-29T13:48:31.757Z,57.57
2023-03-29T13:51:08.301Z,58.07
2023-03-29T13:53:51.536Z,57.30
2023-03-29T13:56:26.239Z,58.61
2023-03-29T13:59:00.528Z,59.00
2023-03-29T14:01:40.738Z,58.84
2023-03-29T14:04:15.530Z,57.34
2023-03-29T14:06:45.640Z,57.30
2023-03-29T14:09:15.331Z,58.19
2023-03-29T14:11:45.655Z,58.79
2023-03-29T14:14:12.301Z,59.81
2023-03-29T14:16:40.613Z,60.21
2023-03-29T14:19:29.430Z,61.51
2023-03-29T14:21:57.559Z,62.46
2023-03-29T14:24:38.642Z,62.06
2023-03-29T14:27:06.551Z,61.89
2023-03-29T14:29:34.557Z,62.52
2023-03-29T14:32:18.394Z,62.31
2023-03-29T14:34:49.448Z,62.13
2023-03-29T14:37:23.652Z,62.92
2023-03-29T14:39:50.667Z,62.42
2023-03-29T14:42:26.667Z,62.61
2023-03-29T14:45:04.582Z,62.11
2023-03-29T14:47:33.737Z,64.21
2023-03-29T14:50:01.781Z,63.78
2023-03-29T14:52:30.273Z,63.28
2023-03-29T14:54:59.581Z,63.38
2023-03-29T14:57:32.809Z,63.42
2023-03-29T15:00:01.778Z,64.37
2023-03-29T15:02:31.094Z,63.46
2023-03-29T15:05:03.338Z,63.43
2023-03-29T15:07:31.498Z,63.59
2023-03-29T15:09:59.927Z,63.70
2023-03-29T15:12:30.658Z,64.06
2023-03-29T15:14:57.759Z,63.64
2023-03-29T15:17:50.466Z,64.90
2023-03-29T15:20:21.463Z,64.80
2023-03-29T15:22:56.881Z,64.69
2023-03-29T15:25:33.512Z,66.42
2023-03-29T15:28:01.523Z,68.35
2023-03-29T15:30:57.379Z,68.93
2023-03-29T15:33:34.508Z,70.13
2023-03-29T15:36:03.498Z,70.11
2023-03-29T15:38:42.577Z,71.60
2023-03-29T15:41:10.818Z,70.97
2023-03-29T15:43:37.449Z,72.46
2023-03-29T15:46:04.324Z,72.78
2023-03-29T15:48:33.406Z,74.32
2023-03-29T15:51:03.797Z,73.51
2023-03-29T15:53:32.199Z,75.15
2023-03-29T15:56:01.186Z,75.65
2023-03-29T15:58:30.259Z,75.23
2023-03-29T16:01:23.305Z,75.62
2023-03-29T16:03:50.122Z,76.54
2023-03-29T16:06:22.067Z,76.61
2023-03-29T16:08:48.472Z,77.59
2023-03-29T16:11:14.880Z,77.99
2023-03-29T16:13:41.409Z,79.15
2023-03-29T16:16:10.645Z,79.49
2023-03-29T16:18:37.692Z,79.46
2023-03-29T16:21:04.725Z,79.99
2023-03-29T16:23:31.303Z,79.45
2023-03-29T16:25:59.326Z,79.13
2023-03-29T16:28:25.842Z,78.87
2023-03-29T16:30:52.257Z,79.43
2023-03-29T16:33:18.655Z,79.19
2023-03-29T16:35:45.042Z,78.00
2023-03-29T16:38:11.456Z,78.80
2023-03-29T16:40:38.404Z,79.03
2023-03-29T16:43:05.440Z,79.00
2023-03-29T16:45:31.886Z,78.71
2023-03-29T16:47:58.295Z,79.37
2023-03-29T16:50:24.819Z,80.04
2023-03-29T16:52:52.482Z,80.70
2023-03-29T16:55:19.276Z,79.82
2023-03-29T16:57:47.297Z,79.11
2023-03-29T17:00:15.978Z,78.63
2023-03-29T17:02:43.523Z,79.50
2023-03-29T17:05:11.170Z,79.60
2023-03-29T17:07:39.131Z,80.14
2023-03-29T17:10:09.931Z,79.74
2023-03-29T17:15:15.281Z,79.91
2023-03-29T17:17:41.766Z,80.30
2023-03-29T17:20:12.317Z,80.30
2023-03-29T17:22:39.733Z,80.00
2023-03-29T17:25:07.479Z,79.82
2023-03-29T17:27:35.050Z,80.19
2023-03-29T17:30:02.129Z,79.48
2023-03-29T17:32:28.537Z,79.45
2023-03-29T17:34:55.001Z,79.32
2023-03-29T17:37:21.424Z,80.96
2023-03-29T17:39:47.760Z,81.23
2023-03-29T17:42:15.916Z,81.39
2023-03-29T17:44:42.260Z,82.23
2023-03-29T17:47:08.712Z,83.77
2023-03-29T17:49:35.131Z,84.00
2023-03-29T17:52:01.630Z,84.38
2023-03-29T17:54:28.135Z,85.62
2023-03-29T17:56:54.558Z,86.09
2023-03-29T17:59:21.012Z,86.25
2023-03-29T18:01:47.450Z,86.43
2023-03-29T18:04:13.920Z,85.76
2023-03-29T18:06:40.423Z,86.18
2023-03-29T18:09:06.861Z,86.26
2023-03-29T18:11:33.259Z,86.66
2023-03-29T18:14:00.870Z,87.60
2023-03-29T18:16:27.458Z,88.07
2023-03-29T18:18:54.054Z,89.24
2023-03-29T18:21:20.842Z,89.00
2023-03-29T18:23:49.057Z,89.46
2023-03-29T18:26:16.473Z,89.28
2023-03-29T18:28:46.903Z,89.10
2023-03-29T18:31:13.755Z,89.72
2023-03-29T18:33:40.205Z,90.78
2023-03-29T18:36:10.760Z,90.32
2023-03-29T18:38:40.396Z,90.56
2023-03-29T18:41:08.512Z,89.69
2023-03-29T18:43:36.983Z,90.06
2023-03-29T18:46:03.566Z,89.88
2023-03-29T18:48:31.085Z,88.98
2023-03-29T18:50:57.848Z,88.16
2023-03-29T18:53:24.469Z,87.18
2023-03-29T18:55:50.866Z,85.81
2023-03-29T18:58:17.823Z,85.43
2023-03-29T19:00:44.483Z,84.49
2023-03-29T19:03:11.083Z,84.39
2023-03-29T19:05:41.095Z,83.87
2023-03-29T19:08:08.435Z,84.78
2023-03-29T19:10:36.572Z,85.53
2023-03-29T19:13:04.175Z,85.72
2023-03-29T19:15:31.376Z,86.61
2023-03-29T19:17:58.000Z,87.18
2023-03-29T19:20:25.443Z,87.19
2023-03-29T19:22:53.210Z,87.64
2023-03-29T19:25:20.274Z,88.28
2023-03-29T19:27:46.710Z,87.74
2023-03-29T19:30:14.556Z,88.19
2023-03-29T19:32:40.939Z,88.77
2023-03-29T19:35:09.560Z,89.30
2023-03-29T19:37:36.156Z,89.05
2023-03-29T19:40:03.115Z,89.54
2023-03-29T19:42:29.646Z,89.54
2023-03-29T19:44:56.395Z,89.10
2023-03-29T19:47:22.865Z,88.43
2023-03-29T19:49:49.246Z,88.40
2023-03-29T19:52:15.644Z,88.29
2023-03-29T19:54:42.419Z,87.76
2023-03-29T19:57:09.294Z,88.08
2023-03-29T19:59:37.618Z,88.22
2023-03-29T20:02:04.042Z,88.10
2023-03-29T20:04:33.085Z,88.14
2023-03-29T20:06:59.592Z,88.13
2023-03-29T20:09:26.047Z,88.06
2023-03-29T20:11:52.410Z,87.34
2023-03-29T20:14:18.927Z,87.71
2023-03-29T20:16:46.200Z,88.00
2023-03-29T20:19:14.037Z,88.09
2023-03-29T20:21:40.702Z,87.78
2023-03-29T20:24:08.648Z,87.44
2023-03-29T20:26:35.600Z,87.92
2023-03-29T20:29:02.634Z,88.44
2023-03-29T20:31:29.995Z,88.38
2023-03-29T20:33:57.564Z,89.13
2023-03-29T20:36:26.541Z,88.47
2023-03-29T20:38:55.187Z,88.76
2023-03-29T20:41:22.824Z,89.32
2023-03-29T20:43:58.032Z,88.48
2023-03-29T20:46:33.029Z,88.72
2023-03-29T20:49:04.612Z,89.47
2023-03-29T20:51:32.028Z,89.38
2023-03-29T20:54:04.683Z,90.41
2023-03-29T20:56:39.926Z,90.72
2023-03-29T20:59:10.345Z,89.50
2023-03-29T21:01:40.452Z,89.95
2023-03-29T21:04:08.368Z,89.57
2023-03-29T21:06:36.090Z,89.67
2023-03-29T21:09:02.555Z,89.24
2023-03-29T21:11:29.012Z,89.71
2023-03-29T21:13:55.422Z,90.13
2023-03-29T21:16:22.013Z,90.44
2023-03-29T21:18:48.473Z,90.76
2023-03-29T21:21:14.879Z,91.52
2023-03-29T21:23:41.287Z,91.07
2023-03-29T21:26:07.824Z,90.70
2023-03-29T21:28:34.274Z,90.71
2023-03-29T21:31:04.816Z,90.92
2023-03-29T21:33:31.649Z,91.10
2023-03-29T21:35:58.224Z,90.77
2023-03-29T21:38:24.738Z,89.45
2023-03-29T21:40:51.162Z,89.97
2023-03-29T21:43:17.648Z,90.49
2023-03-29T21:45:48.327Z,90.62
2023-03-29T21:48:14.880Z,91.11
2023-03-29T21:50:41.341Z,91.85
2023-03-29T21:53:07.828Z,92.56
2023-03-29T21:55:37.715Z,92.63
2023-03-29T21:58:04.631Z,94.01
2023-03-29T22:00:31.748Z,94.06
2023-03-29T22:02:58.300Z,94.36
2023-03-29T22:05:26.151Z,95.12
2023-03-29T22:07:52.794Z,95.05
2023-03-29T22:10:23.103Z,95.30
2023-03-29T22:12:50.787Z,95.97
2023-03-29T22:15:20.595Z,95.64
2023-03-29T22:17:47.714Z,96.14
2023-03-29T22:20:15.166Z,96.62
2023-03-29T22:22:52.438Z,96.94
2023-03-29T22:25:19.503Z,95.81
2023-03-29T22:27:47.794Z,96.38
2023-03-29T22:30:15.555Z,96.93
2023-03-29T22:32:42.324Z,97.53
2023-03-29T22:35:09.702Z,97.62
2023-03-29T22:37:43.506Z,97.62
2023-03-29T22:40:11.343Z,97.15
2023-03-29T22:42:37.969Z,97.40
2023-03-29T22:45:06.411Z,96.39
2023-03-29T22:47:32.883Z,96.72
2023-03-29T22:49:59.409Z,96.82
2023-03-29T22:52:25.831Z,97.36
2023-03-29T22:54:52.182Z,97.54
2023-03-29T22:57:18.606Z,98.16
2023-03-29T22:59:45.028Z,98.16
2023-03-29T23:02:11.591Z,98.91
2023-03-29T23:04:38.686Z,100.00
2023-03-29T23:07:06.071Z,100.00
2023-03-29T23:09:32.885Z,100.00
2023-03-29T23:12:01.080Z,100.00
2023-03-29T23:14:27.969Z,99.79
2023-03-29T23:16:54.400Z,100.00
2023-03-29T23:19:20.832Z,99.34
2023-03-29T23:21:47.236Z,99.89
2023-03-29T23:24:13.681Z,99.15
2023-03-29T23:26:40.078Z,99.39
2023-03-29T23:29:06.478Z,99.25
2023-03-29T23:31:33.617Z,99.84
2023-03-29T23:34:00.130Z,100.00
2023-03-29T23:36:30.999Z,99.60
2023-03-29T23:38:59.432Z,99.08
2023-03-29T23:41:30.429Z,99.63
2023-03-29T23:43:57.573Z,100.00
2023-03-29T23:46:24.614Z,100.00
2023-03-29T23:48:51.375Z,100.00
2023-03-29T23:51:18.861Z,100.00
2023-03-29T23:53:46.522Z,100.00
2023-03-29T23:56:13.136Z,100.00
2023-03-29T23:58:39.656Z,100.00
